sensor_id;sensor_type;location;lat;lon;timestamp;P1;durP1;ratioP1;P2;durP2;ratioP2
20709;SDS011;10516;51.518;9.864;2022-08-30T00:00:17;5.60;;;4.57;;
20709;SDS011;10516;51.518;9.864;2022-08-30T00:03:04;12.02;;;6.13;;
20709;SDS011;10516;51.518;9.864;2022-08-30T00:05:33;6.45;;;4.80;;
20709;SDS011;10516;51.518;9.864;2022-08-30T00:07:59;10.98;;;5.00;;
20709;SDS011;10516;51.518;9.864;2022-08-30T00:10:26;5.28;;;4.40;;
20709;SDS011;10516;51.518;9.864;2022-08-30T00:12:53;4.57;;;4.18;;
20709;SDS011;10516;51.518;9.864;2022-08-30T00:15:19;6.78;;;4.80;;
20709;SDS011;10516;51.518;9.864;2022-08-30T00:17:44;6.05;;;4.60;;
20709;SDS011;10516;51.518;9.864;2022-08-30T00:20:12;9.77;;;5.22;;
20709;SDS011;10516;51.518;9.864;2022-08-30T00:22:39;6.45;;;4.43;;
20709;SDS011;10516;51.518;9.864;2022-08-30T00:25:05;7.72;;;4.60;;
20709;SDS011;10516;51.518;9.864;2022-08-30T00:27:31;6.35;;;4.32;;
20709;SDS011;10516;51.518;9.864;2022-08-30T00:29:58;9.20;;;4.30;;
20709;SDS011;10516;51.518;9.864;2022-08-30T00:32:23;7.22;;;4.60;;
20709;SDS011;10516;51.518;9.864;2022-08-30T00:34:49;5.57;;;5.00;;
20709;SDS011;10516;51.518;9.864;2022-08-30T00:37:16;5.03;;;4.15;;
20709;SDS011;10516;51.518;9.864;2022-08-30T00:39:43;5.07;;;4.22;;
20709;SDS011;10516;51.518;9.864;2022-08-30T00:42:08;8.15;;;5.05;;
20709;SDS011;10516;51.518;9.864;2022-08-30T00:44:35;8.02;;;4.40;;
20709;SDS011;10516;51.518;9.864;2022-08-30T00:47:01;6.20;;;4.65;;
20709;SDS011;10516;51.518;9.864;2022-08-30T00:49:27;8.40;;;4.63;;
20709;SDS011;10516;51.518;9.864;2022-08-30T00:51:54;9.63;;;4.40;;
20709;SDS011;10516;51.518;9.864;2022-08-30T00:54:20;6.35;;;4.53;;
20709;SDS011;10516;51.518;9.864;2022-08-30T00:56:46;12.98;;;5.68;;
20709;SDS011;10516;51.518;9.864;2022-08-30T00:59:13;4.60;;;4.00;;
20709;SDS011;10516;51.518;9.864;2022-08-30T01:01:39;10.63;;;6.00;;
20709;SDS011;10516;51.518;9.864;2022-08-30T01:04:05;6.93;;;5.88;;
20709;SDS011;10516;51.518;9.864;2022-08-30T01:06:33;8.98;;;4.70;;
20709;SDS011;10516;51.518;9.864;2022-08-30T01:08:59;7.10;;;4.45;;
20709;SDS011;10516;51.518;9.864;2022-08-30T01:11:26;7.65;;;5.35;;
20709;SDS011;10516;51.518;9.864;2022-08-30T01:13:52;6.40;;;4.70;;
20709;SDS011;10516;51.518;9.864;2022-08-30T01:16:20;8.43;;;5.88;;
20709;SDS011;10516;51.518;9.864;2022-08-30T01:18:47;10.35;;;5.50;;
20709;SDS011;10516;51.518;9.864;2022-08-30T01:23:52;9.23;;;5.95;;
20709;SDS011;10516;51.518;9.864;2022-08-30T01:26:21;9.00;;;5.85;;
20709;SDS011;10516;51.518;9.864;2022-08-30T01:28:47;8.23;;;5.68;;
20709;SDS011;10516;51.518;9.864;2022-08-30T01:31:16;11.02;;;6.75;;
20709;SDS011;10516;51.518;9.864;2022-08-30T01:33:42;6.18;;;4.88;;
20709;SDS011;10516;51.518;9.864;2022-08-30T01:36:08;4.93;;;4.25;;
20709;SDS011;10516;51.518;9.864;2022-08-30T01:41:23;4.38;;;3.97;;
20709;SDS011;10516;51.518;9.864;2022-08-30T01:43:52;8.02;;;5.18;;
20709;SDS011;10516;51.518;9.864;2022-08-30T01:46:23;7.75;;;4.72;;
20709;SDS011;10516;51.518;9.864;2022-08-30T01:48:52;7.28;;;4.85;;
20709;SDS011;10516;51.518;9.864;2022-08-30T01:51:20;5.28;;;4.53;;
20709;SDS011;10516;51.518;9.864;2022-08-30T01:53:47;4.90;;;4.40;;
20709;SDS011;10516;51.518;9.864;2022-08-30T01:56:12;5.10;;;4.05;;
20709;SDS011;10516;51.518;9.864;2022-08-30T01:58:39;8.55;;;4.03;;
20709;SDS011;10516;51.518;9.864;2022-08-30T02:01:07;7.72;;;4.22;;
20709;SDS011;10516;51.518;9.864;2022-08-30T02:03:36;4.97;;;3.63;;
20709;SDS011;10516;51.518;9.864;2022-08-30T02:06:06;5.93;;;4.32;;
20709;SDS011;10516;51.518;9.864;2022-08-30T02:08:34;5.20;;;3.88;;
20709;SDS011;10516;51.518;9.864;2022-08-30T02:11:01;5.30;;;3.97;;
20709;SDS011;10516;51.518;9.864;2022-08-30T02:13:27;4.93;;;3.30;;
20709;SDS011;10516;51.518;9.864;2022-08-30T02:15:53;6.68;;;3.75;;
20709;SDS011;10516;51.518;9.864;2022-08-30T02:18:20;4.82;;;3.55;;
20709;SDS011;10516;51.518;9.864;2022-08-30T02:20:46;5.25;;;3.40;;
20709;SDS011;10516;51.518;9.864;2022-08-30T02:23:11;3.33;;;3.03;;
20709;SDS011;10516;51.518;9.864;2022-08-30T02:25:37;5.28;;;3.40;;
20709;SDS011;10516;51.518;9.864;2022-08-30T02:28:03;3.42;;;3.00;;
20709;SDS011;10516;51.518;9.864;2022-08-30T02:30:29;3.83;;;3.47;;
20709;SDS011;10516;51.518;9.864;2022-08-30T02:32:55;3.38;;;3.03;;
20709;SDS011;10516;51.518;9.864;2022-08-30T02:35:21;6.45;;;3.83;;
20709;SDS011;10516;51.518;9.864;2022-08-30T02:37:46;6.70;;;3.50;;
20709;SDS011;10516;51.518;9.864;2022-08-30T02:40:12;4.18;;;3.78;;
20709;SDS011;10516;51.518;9.864;2022-08-30T02:42:37;7.00;;;5.28;;
20709;SDS011;10516;51.518;9.864;2022-08-30T02:45:03;5.95;;;3.63;;
20709;SDS011;10516;51.518;9.864;2022-08-30T02:47:29;3.80;;;3.20;;
20709;SDS011;10516;51.518;9.864;2022-08-30T02:49:55;6.18;;;3.92;;
20709;SDS011;10516;51.518;9.864;2022-08-30T02:52:20;3.95;;;3.55;;
20709;SDS011;10516;51.518;9.864;2022-08-30T02:54:47;5.00;;;3.97;;
20709;SDS011;10516;51.518;9.864;2022-08-30T02:57:12;5.82;;;4.32;;
20709;SDS011;10516;51.518;9.864;2022-08-30T02:59:39;5.03;;;4.53;;
20709;SDS011;10516;51.518;9.864;2022-08-30T03:02:08;5.28;;;3.85;;
20709;SDS011;10516;51.518;9.864;2022-08-30T03:04:35;6.00;;;2.90;;
20709;SDS011;10516;51.518;9.864;2022-08-30T03:07:03;5.00;;;4.50;;
20709;SDS011;10516;51.518;9.864;2022-08-30T03:09:28;6.55;;;3.85;;
20709;SDS011;10516;51.518;9.864;2022-08-30T03:11:54;11.30;;;5.20;;
20709;SDS011;10516;51.518;9.864;2022-08-30T03:14:19;8.27;;;3.60;;
20709;SDS011;10516;51.518;9.864;2022-08-30T03:16:45;4.03;;;3.25;;
20709;SDS011;10516;51.518;9.864;2022-08-30T03:19:10;2.85;;;2.65;;
20709;SDS011;10516;51.518;9.864;2022-08-30T03:21:36;4.57;;;2.80;;
20709;SDS011;10516;51.518;9.864;2022-08-30T03:24:02;3.72;;;3.42;;
20709;SDS011;10516;51.518;9.864;2022-08-30T03:26:27;7.45;;;3.92;;
20709;SDS011;10516;51.518;9.864;2022-08-30T03:28:53;3.30;;;3.00;;
20709;SDS011;10516;51.518;9.864;2022-08-30T03:31:18;7.82;;;3.70;;
20709;SDS011;10516;51.518;9.864;2022-08-30T03:33:44;4.10;;;3.00;;
20709;SDS011;10516;51.518;9.864;2022-08-30T03:36:09;4.88;;;3.10;;
20709;SDS011;10516;51.518;9.864;2022-08-30T03:38:36;5.85;;;2.95;;
20709;SDS011;10516;51.518;9.864;2022-08-30T03:41:02;4.30;;;3.20;;
20709;SDS011;10516;51.518;9.864;2022-08-30T03:43:30;3.28;;;2.67;;
20709;SDS011;10516;51.518;9.864;2022-08-30T03:45:58;3.05;;;2.75;;
20709;SDS011;10516;51.518;9.864;2022-08-30T03:48:25;3.42;;;2.35;;
20709;SDS011;10516;51.518;9.864;2022-08-30T03:50:50;3.72;;;3.42;;
20709;SDS011;10516;51.518;9.864;2022-08-30T03:53:16;3.17;;;2.45;;
20709;SDS011;10516;51.518;9.864;2022-08-30T03:55:41;3.20;;;2.40;;
20709;SDS011;10516;51.518;9.864;2022-08-30T03:58:07;2.42;;;2.22;;
20709;SDS011;10516;51.518;9.864;2022-08-30T04:00:32;2.88;;;2.67;;
20709;SDS011;10516;51.518;9.864;2022-08-30T04:02:58;3.88;;;2.60;;
20709;SDS011;10516;51.518;9.864;2022-08-30T04:05:23;2.88;;;2.53;;
20709;SDS011;10516;51.518;9.864;2022-08-30T04:07:50;2.45;;;2.25;;
20709;SDS011;10516;51.518;9.864;2022-08-30T04:10:16;4.45;;;2.20;;
20709;SDS011;10516;51.518;9.864;2022-08-30T04:12:41;2.30;;;2.10;;
20709;SDS011;10516;51.518;9.864;2022-08-30T04:15:07;5.32;;;2.08;;
20709;SDS011;10516;51.518;9.864;2022-08-30T04:17:34;4.05;;;2.53;;
20709;SDS011;10516;51.518;9.864;2022-08-30T04:20:00;5.10;;;2.53;;
20709;SDS011;10516;51.518;9.864;2022-08-30T04:22:25;4.03;;;2.95;;
20709;SDS011;10516;51.518;9.864;2022-08-30T04:24:51;5.65;;;3.30;;
20709;SDS011;10516;51.518;9.864;2022-08-30T04:27:16;6.75;;;3.13;;
20709;SDS011;10516;51.518;9.864;2022-08-30T04:29:44;3.85;;;2.88;;
20709;SDS011;10516;51.518;9.864;2022-08-30T04:32:11;4.03;;;3.35;;
20709;SDS011;10516;51.518;9.864;2022-08-30T04:34:36;4.47;;;3.75;;
20709;SDS011;10516;51.518;9.864;2022-08-30T04:37:04;5.25;;;4.18;;
20709;SDS011;10516;51.518;9.864;2022-08-30T04:39:29;5.90;;;4.10;;
20709;SDS011;10516;51.518;9.864;2022-08-30T04:41:55;4.57;;;3.95;;
20709;SDS011;10516;51.518;9.864;2022-08-30T04:44:21;7.68;;;4.53;;
20709;SDS011;10516;51.518;9.864;2022-08-30T04:46:47;4.80;;;4.38;;
20709;SDS011;10516;51.518;9.864;2022-08-30T04:49:13;8.55;;;5.88;;
20709;SDS011;10516;51.518;9.864;2022-08-30T04:51:39;7.32;;;5.13;;
20709;SDS011;10516;51.518;9.864;2022-08-30T04:54:05;5.43;;;4.93;;
20709;SDS011;10516;51.518;9.864;2022-08-30T04:56:31;5.20;;;4.80;;
20709;SDS011;10516;51.518;9.864;2022-08-30T04:58:57;5.82;;;4.90;;
20709;SDS011;10516;51.518;9.864;2022-08-30T05:01:28;12.93;;;5.97;;
20709;SDS011;10516;51.518;9.864;2022-08-30T05:03:55;13.77;;;6.20;;
20709;SDS011;10516;51.518;9.864;2022-08-30T05:06:22;8.65;;;5.78;;
20709;SDS011;10516;51.518;9.864;2022-08-30T05:08:49;7.32;;;5.72;;
20709;SDS011;10516;51.518;9.864;2022-08-30T05:11:16;7.50;;;4.97;;
20709;SDS011;10516;51.518;9.864;2022-08-30T05:13:43;7.47;;;5.30;;
20709;SDS011;10516;51.518;9.864;2022-08-30T05:16:09;7.78;;;6.15;;
20709;SDS011;10516;51.518;9.864;2022-08-30T05:18:35;7.40;;;5.85;;
20709;SDS011;10516;51.518;9.864;2022-08-30T05:23:28;12.45;;;5.78;;
20709;SDS011;10516;51.518;9.864;2022-08-30T05:25:54;10.32;;;6.30;;
20709;SDS011;10516;51.518;9.864;2022-08-30T05:28:19;8.43;;;6.93;;
20709;SDS011;10516;51.518;9.864;2022-08-30T05:30:45;12.25;;;8.07;;
20709;SDS011;10516;51.518;9.864;2022-08-30T05:33:10;9.85;;;7.93;;
20709;SDS011;10516;51.518;9.864;2022-08-30T05:35:36;6.93;;;6.07;;
20709;SDS011;10516;51.518;9.864;2022-08-30T05:38:02;8.77;;;7.88;;
20709;SDS011;10516;51.518;9.864;2022-08-30T05:40:28;12.88;;;8.57;;
20709;SDS011;10516;51.518;9.864;2022-08-30T05:42:53;12.95;;;9.77;;
20709;SDS011;10516;51.518;9.864;2022-08-30T05:45:18;8.98;;;6.22;;
20709;SDS011;10516;51.518;9.864;2022-08-30T05:47:44;12.93;;;9.07;;
20709;SDS011;10516;51.518;9.864;2022-08-30T05:50:11;11.52;;;10.18;;
20709;SDS011;10516;51.518;9.864;2022-08-30T05:52:38;10.10;;;7.70;;
20709;SDS011;10516;51.518;9.864;2022-08-30T05:55:06;14.23;;;10.30;;
20709;SDS011;10516;51.518;9.864;2022-08-30T05:57:33;20.65;;;11.77;;
20709;SDS011;10516;51.518;9.864;2022-08-30T06:00:01;19.05;;;11.50;;
20709;SDS011;10516;51.518;9.864;2022-08-30T06:02:30;6.65;;;4.97;;
20709;SDS011;10516;51.518;9.864;2022-08-30T06:04:55;12.13;;;6.60;;
20709;SDS011;10516;51.518;9.864;2022-08-30T06:07:21;11.07;;;7.32;;
20709;SDS011;10516;51.518;9.864;2022-08-30T06:09:46;21.48;;;12.38;;
20709;SDS011;10516;51.518;9.864;2022-08-30T06:12:12;6.03;;;4.38;;
20709;SDS011;10516;51.518;9.864;2022-08-30T06:14:37;26.13;;;12.13;;
20709;SDS011;10516;51.518;9.864;2022-08-30T06:17:03;21.88;;;13.05;;
20709;SDS011;10516;51.518;9.864;2022-08-30T06:19:29;19.20;;;12.85;;
20709;SDS011;10516;51.518;9.864;2022-08-30T06:21:55;31.58;;;14.95;;
20709;SDS011;10516;51.518;9.864;2022-08-30T06:24:20;25.02;;;14.15;;
20709;SDS011;10516;51.518;9.864;2022-08-30T06:26:45;26.08;;;14.95;;
20709;SDS011;10516;51.518;9.864;2022-08-30T06:29:12;23.77;;;15.10;;
20709;SDS011;10516;51.518;9.864;2022-08-30T06:31:39;25.15;;;15.45;;
20709;SDS011;10516;51.518;9.864;2022-08-30T06:34:05;27.92;;;16.45;;
20709;SDS011;10516;51.518;9.864;2022-08-30T06:36:31;34.13;;;17.48;;
20709;SDS011;10516;51.518;9.864;2022-08-30T06:38:57;33.83;;;18.58;;
20709;SDS011;10516;51.518;9.864;2022-08-30T06:41:27;30.40;;;17.50;;
20709;SDS011;10516;51.518;9.864;2022-08-30T06:43:56;26.00;;;16.20;;
20709;SDS011;10516;51.518;9.864;2022-08-30T06:46:26;27.73;;;17.83;;
20709;SDS011;10516;51.518;9.864;2022-08-30T06:48:56;26.08;;;14.02;;
20709;SDS011;10516;51.518;9.864;2022-08-30T06:51:25;16.48;;;10.93;;
20709;SDS011;10516;51.518;9.864;2022-08-30T06:53:53;31.90;;;19.85;;
20709;SDS011;10516;51.518;9.864;2022-08-30T06:56:19;32.05;;;20.58;;
20709;SDS011;10516;51.518;9.864;2022-08-30T06:58:45;33.05;;;20.25;;
20709;SDS011;10516;51.518;9.864;2022-08-30T07:01:16;30.00;;;20.00;;
20709;SDS011;10516;51.518;9.864;2022-08-30T07:03:44;27.02;;;18.60;;
20709;SDS011;10516;51.518;9.864;2022-08-30T07:06:09;32.15;;;20.20;;
20709;SDS011;10516;51.518;9.864;2022-08-30T07:08:35;24.23;;;16.25;;
20709;SDS011;10516;51.518;9.864;2022-08-30T07:11:02;34.10;;;19.92;;
20709;SDS011;10516;51.518;9.864;2022-08-30T07:13:29;31.42;;;20.75;;
20709;SDS011;10516;51.518;9.864;2022-08-30T07:15:55;28.92;;;18.23;;
20709;SDS011;10516;51.518;9.864;2022-08-30T07:18:20;35.55;;;22.25;;
20709;SDS011;10516;51.518;9.864;2022-08-30T07:21:06;29.40;;;20.42;;
20709;SDS011;10516;51.518;9.864;2022-08-30T07:23:34;30.65;;;21.08;;
20709;SDS011;10516;51.518;9.864;2022-08-30T07:26:02;32.55;;;21.63;;
20709;SDS011;10516;51.518;9.864;2022-08-30T07:28:29;25.55;;;19.33;;
20709;SDS011;10516;51.518;9.864;2022-08-30T07:30:54;30.00;;;20.80;;
20709;SDS011;10516;51.518;9.864;2022-08-30T07:33:20;23.77;;;18.77;;
20709;SDS011;10516;51.518;9.864;2022-08-30T07:35:45;28.60;;;18.02;;
20709;SDS011;10516;51.518;9.864;2022-08-30T07:38:12;28.08;;;18.80;;
20709;SDS011;10516;51.518;9.864;2022-08-30T07:40:39;20.55;;;16.80;;
20709;SDS011;10516;51.518;9.864;2022-08-30T07:43:04;21.27;;;15.57;;
20709;SDS011;10516;51.518;9.864;2022-08-30T07:45:30;21.02;;;15.05;;
20709;SDS011;10516;51.518;9.864;2022-08-30T07:47:56;17.35;;;13.90;;
20709;SDS011;10516;51.518;9.864;2022-08-30T07:50:22;20.75;;;15.55;;
20709;SDS011;10516;51.518;9.864;2022-08-30T07:52:48;20.20;;;14.45;;
20709;SDS011;10516;51.518;9.864;2022-08-30T07:55:13;10.00;;;8.38;;
20709;SDS011;10516;51.518;9.864;2022-08-30T07:57:39;16.98;;;12.35;;
20709;SDS011;10516;51.518;9.864;2022-08-30T08:00:04;23.27;;;13.15;;
20709;SDS011;10516;51.518;9.864;2022-08-30T08:02:30;17.23;;;13.30;;
20709;SDS011;10516;51.518;9.864;2022-08-30T08:04:57;20.17;;;13.98;;
20709;SDS011;10516;51.518;9.864;2022-08-30T08:07:22;16.15;;;13.70;;
20709;SDS011;10516;51.518;9.864;2022-08-30T08:09:48;12.15;;;10.13;;
20709;SDS011;10516;51.518;9.864;2022-08-30T08:12:13;20.27;;;11.00;;
20709;SDS011;10516;51.518;9.864;2022-08-30T08:14:39;14.02;;;11.50;;
20709;SDS011;10516;51.518;9.864;2022-08-30T08:17:05;9.88;;;8.25;;
20709;SDS011;10516;51.518;9.864;2022-08-30T08:19:31;10.73;;;7.88;;
20709;SDS011;10516;51.518;9.864;2022-08-30T08:21:56;7.88;;;7.10;;
20709;SDS011;10516;51.518;9.864;2022-08-30T08:24:24;16.35;;;12.10;;
20709;SDS011;10516;51.518;9.864;2022-08-30T08:26:51;16.48;;;10.80;;
20709;SDS011;10516;51.518;9.864;2022-08-30T08:29:16;15.88;;;10.70;;
20709;SDS011;10516;51.518;9.864;2022-08-30T08:31:41;15.75;;;11.52;;
20709;SDS011;10516;51.518;9.864;2022-08-30T08:34:07;8.30;;;6.47;;
20709;SDS011;10516;51.518;9.864;2022-08-30T08:36:33;17.70;;;10.48;;
20709;SDS011;10516;51.518;9.864;2022-08-30T08:39:00;10.68;;;8.73;;
20709;SDS011;10516;51.518;9.864;2022-08-30T08:41:32;16.13;;;10.88;;
20709;SDS011;10516;51.518;9.864;2022-08-30T08:44:07;17.23;;;10.65;;
20709;SDS011;10516;51.518;9.864;2022-08-30T08:49:38;16.15;;;9.13;;
20709;SDS011;10516;51.518;9.864;2022-08-30T08:52:11;16.77;;;11.75;;
20709;SDS011;10516;51.518;9.864;2022-08-30T08:55:01;19.45;;;11.20;;
20709;SDS011;10516;51.518;9.864;2022-08-30T08:57:33;18.88;;;11.07;;
20709;SDS011;10516;51.518;9.864;2022-08-30T08:59:59;14.57;;;9.23;;
20709;SDS011;10516;51.518;9.864;2022-08-30T09:02:34;16.85;;;11.60;;
20709;SDS011;10516;51.518;9.864;2022-08-30T09:05:26;16.25;;;11.02;;
20709;SDS011;10516;51.518;9.864;2022-08-30T09:08:02;19.75;;;10.98;;
20709;SDS011;10516;51.518;9.864;2022-08-30T09:10:31;13.20;;;10.70;;
20709;SDS011;10516;51.518;9.864;2022-08-30T09:12:58;13.85;;;9.85;;
20709;SDS011;10516;51.518;9.864;2022-08-30T09:15:29;16.00;;;10.15;;
20709;SDS011;10516;51.518;9.864;2022-08-30T09:18:01;15.38;;;9.63;;
20709;SDS011;10516;51.518;9.864;2022-08-30T09:20:34;12.73;;;9.80;;
20709;SDS011;10516;51.518;9.864;2022-08-30T09:28:30;13.55;;;9.60;;
20709;SDS011;10516;51.518;9.864;2022-08-30T09:31:20;10.90;;;8.95;;
20709;SDS011;10516;51.518;9.864;2022-08-30T09:34:04;13.50;;;9.70;;
20709;SDS011;10516;51.518;9.864;2022-08-30T09:36:37;16.95;;;9.88;;
20709;SDS011;10516;51.518;9.864;2022-08-30T09:41:50;13.07;;;8.95;;
20709;SDS011;10516;51.518;9.864;2022-08-30T09:44:20;16.17;;;8.45;;
20709;SDS011;10516;51.518;9.864;2022-08-30T09:46:49;13.07;;;8.35;;
20709;SDS011;10516;51.518;9.864;2022-08-30T09:49:36;12.27;;;8.57;;
20709;SDS011;10516;51.518;9.864;2022-08-30T10:00:36;15.43;;;8.23;;
20709;SDS011;10516;51.518;9.864;2022-08-30T10:03:19;10.63;;;7.93;;
20709;SDS011;10516;51.518;9.864;2022-08-30T10:08:29;9.73;;;6.85;;
20709;SDS011;10516;51.518;9.864;2022-08-30T10:16:59;8.80;;;5.88;;
20709;SDS011;10516;51.518;9.864;2022-08-30T10:25:04;7.90;;;7.10;;
20709;SDS011;10516;51.518;9.864;2022-08-30T10:27:36;16.50;;;6.63;;
20709;SDS011;10516;51.518;9.864;2022-08-30T10:30:09;10.32;;;6.22;;
20709;SDS011;10516;51.518;9.864;2022-08-30T10:32:41;4.57;;;3.80;;
20709;SDS011;10516;51.518;9.864;2022-08-30T10:35:13;9.23;;;6.38;;
20709;SDS011;10516;51.518;9.864;2022-08-30T10:38:04;10.10;;;6.10;;
20709;SDS011;10516;51.518;9.864;2022-08-30T10:40:35;9.98;;;6.20;;
20709;SDS011;10516;51.518;9.864;2022-08-30T10:43:30;8.00;;;5.55;;
20709;SDS011;10516;51.518;9.864;2022-08-30T10:46:04;7.60;;;4.82;;
20709;SDS011;10516;51.518;9.864;2022-08-30T10:48:42;6.32;;;5.68;;
20709;SDS011;10516;51.518;9.864;2022-08-30T10:51:13;5.78;;;4.80;;
20709;SDS011;10516;51.518;9.864;2022-08-30T10:53:52;6.15;;;5.10;;
20709;SDS011;10516;51.518;9.864;2022-08-30T10:56:39;6.90;;;5.00;;
20709;SDS011;10516;51.518;9.864;2022-08-30T10:59:07;6.82;;;5.63;;
20709;SDS011;10516;51.518;9.864;2022-08-30T11:04:46;9.73;;;6.07;;
20709;SDS011;10516;51.518;9.864;2022-08-30T11:12:53;7.82;;;6.07;;
20709;SDS011;10516;51.518;9.864;2022-08-30T11:15:27;9.57;;;6.13;;
20709;SDS011;10516;51.518;9.864;2022-08-30T11:20:30;6.78;;;5.55;;
20709;SDS011;10516;51.518;9.864;2022-08-30T11:25:50;6.28;;;5.05;;
20709;SDS011;10516;51.518;9.864;2022-08-30T11:46:47;6.38;;;4.18;;
20709;SDS011;10516;51.518;9.864;2022-08-30T11:57:39;20.10;;;3.97;;
20709;SDS011;10516;51.518;9.864;2022-08-30T12:03:39;4.72;;;3.78;;
20709;SDS011;10516;51.518;9.864;2022-08-30T12:10:45;5.18;;;3.05;;
20709;SDS011;10516;51.518;9.864;2022-08-30T12:14:13;3.65;;;3.10;;
20709;SDS011;10516;51.518;9.864;2022-08-30T12:26:45;11.63;;;3.78;;
20709;SDS011;10516;51.518;9.864;2022-08-30T12:31:56;4.18;;;3.70;;
20709;SDS011;10516;51.518;9.864;2022-08-30T12:34:29;5.30;;;3.08;;
20709;SDS011;10516;51.518;9.864;2022-08-30T12:40:06;5.90;;;3.78;;
20709;SDS011;10516;51.518;9.864;2022-08-30T12:42:41;6.85;;;4.68;;
20709;SDS011;10516;51.518;9.864;2022-08-30T12:45:16;7.07;;;3.67;;
20709;SDS011;10516;51.518;9.864;2022-08-30T12:50:13;5.13;;;3.72;;
20709;SDS011;10516;51.518;9.864;2022-08-30T12:52:55;6.10;;;3.72;;
20709;SDS011;10516;51.518;9.864;2022-08-30T12:55:25;4.22;;;3.80;;
20709;SDS011;10516;51.518;9.864;2022-08-30T13:00:27;4.15;;;3.28;;
20709;SDS011;10516;51.518;9.864;2022-08-30T13:02:59;4.43;;;3.40;;
20709;SDS011;10516;51.518;9.864;2022-08-30T13:10:47;4.65;;;3.67;;
20709;SDS011;10516;51.518;9.864;2022-08-30T13:13:13;5.63;;;3.28;;
20709;SDS011;10516;51.518;9.864;2022-08-30T13:15:52;4.70;;;3.10;;
20709;SDS011;10516;51.518;9.864;2022-08-30T13:18:19;9.93;;;3.58;;
20709;SDS011;10516;51.518;9.864;2022-08-30T13:23:50;4.13;;;3.00;;
20709;SDS011;10516;51.518;9.864;2022-08-30T13:26:19;6.35;;;3.45;;
20709;SDS011;10516;51.518;9.864;2022-08-30T13:28:45;7.25;;;3.72;;
20709;SDS011;10516;51.518;9.864;2022-08-30T13:31:14;6.20;;;3.17;;
20709;SDS011;10516;51.518;9.864;2022-08-30T13:33:39;4.72;;;2.90;;
20709;SDS011;10516;51.518;9.864;2022-08-30T13:36:05;4.15;;;2.67;;
20709;SDS011;10516;51.518;9.864;2022-08-30T13:38:31;3.03;;;2.83;;
20709;SDS011;10516;51.518;9.864;2022-08-30T13:40:56;5.03;;;3.78;;
20709;SDS011;10516;51.518;9.864;2022-08-30T13:43:22;8.00;;;3.30;;
20709;SDS011;10516;51.518;9.864;2022-08-30T13:45:47;3.92;;;3.40;;
20709;SDS011;10516;51.518;9.864;2022-08-30T13:48:12;4.15;;;3.00;;
20709;SDS011;10516;51.518;9.864;2022-08-30T13:50:40;5.22;;;3.42;;
20709;SDS011;10516;51.518;9.864;2022-08-30T13:53:07;3.20;;;2.90;;
20709;SDS011;10516;51.518;9.864;2022-08-30T13:55:33;7.13;;;2.80;;
20709;SDS011;10516;51.518;9.864;2022-08-30T13:58:00;7.20;;;3.78;;
20709;SDS011;10516;51.518;9.864;2022-08-30T14:00:25;5.68;;;2.63;;
20709;SDS011;10516;51.518;9.864;2022-08-30T14:02:51;4.07;;;3.10;;
20709;SDS011;10516;51.518;9.864;2022-08-30T14:05:20;8.10;;;2.75;;
20709;SDS011;10516;51.518;9.864;2022-08-30T14:08:02;3.60;;;3.30;;
20709;SDS011;10516;51.518;9.864;2022-08-30T14:10:29;5.47;;;2.47;;
20709;SDS011;10516;51.518;9.864;2022-08-30T14:12:56;7.68;;;3.08;;
20709;SDS011;10516;51.518;9.864;2022-08-30T14:15:21;4.03;;;2.53;;
20709;SDS011;10516;51.518;9.864;2022-08-30T14:17:47;8.55;;;2.78;;
20709;SDS011;10516;51.518;9.864;2022-08-30T14:20:12;4.95;;;2.80;;
20709;SDS011;10516;51.518;9.864;2022-08-30T14:22:38;6.72;;;3.22;;
20709;SDS011;10516;51.518;9.864;2022-08-30T14:25:04;7.78;;;3.03;;
20709;SDS011;10516;51.518;9.864;2022-08-30T14:27:30;6.03;;;3.22;;
20709;SDS011;10516;51.518;9.864;2022-08-30T14:29:55;3.63;;;2.97;;
20709;SDS011;10516;51.518;9.864;2022-08-30T14:32:21;7.38;;;2.85;;
20709;SDS011;10516;51.518;9.864;2022-08-30T14:34:50;6.30;;;3.60;;
20709;SDS011;10516;51.518;9.864;2022-08-30T14:37:15;3.22;;;3.03;;
20709;SDS011;10516;51.518;9.864;2022-08-30T14:39:40;4.22;;;2.22;;
20709;SDS011;10516;51.518;9.864;2022-08-30T14:42:06;2.75;;;2.55;;
20709;SDS011;10516;51.518;9.864;2022-08-30T14:44:32;5.03;;;3.05;;
20709;SDS011;10516;51.518;9.864;2022-08-30T14:46:58;8.15;;;2.88;;
20709;SDS011;10516;51.518;9.864;2022-08-30T14:49:24;3.17;;;2.70;;
20709;SDS011;10516;51.518;9.864;2022-08-30T14:51:50;6.15;;;3.13;;
20709;SDS011;10516;51.518;9.864;2022-08-30T14:54:16;3.63;;;2.85;;
20709;SDS011;10516;51.518;9.864;2022-08-30T14:56:44;3.55;;;2.55;;
20709;SDS011;10516;51.518;9.864;2022-08-30T14:59:10;2.55;;;2.40;;
20709;SDS011;10516;51.518;9.864;2022-08-30T15:01:37;2.25;;;2.03;;
20709;SDS011;10516;51.518;9.864;2022-08-30T15:04:04;4.43;;;2.50;;
20709;SDS011;10516;51.518;9.864;2022-08-30T15:06:31;3.28;;;2.83;;
20709;SDS011;10516;51.518;9.864;2022-08-30T15:08:56;3.30;;;2.20;;
20709;SDS011;10516;51.518;9.864;2022-08-30T15:11:23;4.03;;;2.88;;
20709;SDS011;10516;51.518;9.864;2022-08-30T15:13:49;3.35;;;2.20;;
20709;SDS011;10516;51.518;9.864;2022-08-30T15:18:43;5.53;;;2.78;;
20709;SDS011;10516;51.518;9.864;2022-08-30T15:21:08;3.45;;;2.53;;
20709;SDS011;10516;51.518;9.864;2022-08-30T15:23:34;6.13;;;2.63;;
20709;SDS011;10516;51.518;9.864;2022-08-30T15:26:00;4.35;;;2.22;;
20709;SDS011;10516;51.518;9.864;2022-08-30T15:28:27;4.22;;;2.25;;
20709;SDS011;10516;51.518;9.864;2022-08-30T15:30:52;5.55;;;2.53;;
20709;SDS011;10516;51.518;9.864;2022-08-30T15:33:19;2.88;;;2.63;;
20709;SDS011;10516;51.518;9.864;2022-08-30T15:35:45;4.70;;;2.97;;
20709;SDS011;10516;51.518;9.864;2022-08-30T15:38:10;3.15;;;2.70;;
20709;SDS011;10516;51.518;9.864;2022-08-30T15:40:36;6.75;;;3.10;;
20709;SDS011;10516;51.518;9.864;2022-08-30T15:43:02;9.50;;;3.30;;
20709;SDS011;10516;51.518;9.864;2022-08-30T15:45:28;5.05;;;2.85;;
20709;SDS011;10516;51.518;9.864;2022-08-30T15:47:55;5.20;;;3.05;;
20709;SDS011;10516;51.518;9.864;2022-08-30T15:50:24;4.28;;;2.78;;
20709;SDS011;10516;51.518;9.864;2022-08-30T15:52:50;5.32;;;2.83;;
20709;SDS011;10516;51.518;9.864;2022-08-30T15:55:15;5.30;;;2.70;;
20709;SDS011;10516;51.518;9.864;2022-08-30T15:57:41;4.03;;;2.50;;
20709;SDS011;10516;51.518;9.864;2022-08-30T16:00:06;2.92;;;2.65;;
20709;SDS011;10516;51.518;9.864;2022-08-30T16:02:34;4.28;;;3.05;;
20709;SDS011;10516;51.518;9.864;2022-08-30T16:04:59;5.15;;;2.58;;
20709;SDS011;10516;51.518;9.864;2022-08-30T16:07:25;5.78;;;2.50;;
20709;SDS011;10516;51.518;9.864;2022-08-30T16:09:51;3.90;;;2.80;;
20709;SDS011;10516;51.518;9.864;2022-08-30T16:12:16;5.15;;;2.25;;
20709;SDS011;10516;51.518;9.864;2022-08-30T16:14:41;3.85;;;2.22;;
20709;SDS011;10516;51.518;9.864;2022-08-30T16:17:07;3.92;;;2.72;;
20709;SDS011;10516;51.518;9.864;2022-08-30T16:19:32;5.25;;;3.22;;
20709;SDS011;10516;51.518;9.864;2022-08-30T16:21:58;4.88;;;2.60;;
20709;SDS011;10516;51.518;9.864;2022-08-30T16:24:24;8.95;;;3.25;;
20709;SDS011;10516;51.518;9.864;2022-08-30T16:26:49;2.92;;;2.13;;
20709;SDS011;10516;51.518;9.864;2022-08-30T16:29:15;4.53;;;3.20;;
20709;SDS011;10516;51.518;9.864;2022-08-30T16:31:41;3.05;;;2.83;;
20709;SDS011;10516;51.518;9.864;2022-08-30T16:34:08;6.40;;;2.75;;
20709;SDS011;10516;51.518;9.864;2022-08-30T16:36:34;8.27;;;2.97;;
20709;SDS011;10516;51.518;9.864;2022-08-30T16:39:01;4.45;;;2.75;;
20709;SDS011;10516;51.518;9.864;2022-08-30T16:41:28;7.32;;;2.72;;
20709;SDS011;10516;51.518;9.864;2022-08-30T16:43:54;4.82;;;2.67;;
20709;SDS011;10516;51.518;9.864;2022-08-30T16:46:20;3.03;;;2.67;;